sensor_id;sensor_type;location;lat;lon;timestamp;P1;durP1;ratioP1;P2;durP2;ratioP2
16516;SDS011;8371;52.272;9.746;2023-11-21T00:00:13;5.40;;;5.10;;
16516;SDS011;8371;52.272;9.746;2023-11-21T00:02:40;5.63;;;5.23;;
16516;SDS011;8371;52.272;9.746;2023-11-21T00:05:07;5.20;;;4.83;;
16516;SDS011;8371;52.272;9.746;2023-11-21T00:07:38;5.23;;;4.90;;
16516;SDS011;8371;52.272;9.746;2023-11-21T00:10:04;5.33;;;5.03;;
16516;SDS011;8371;52.272;9.746;2023-11-21T00:12:36;5.70;;;5.30;;
16516;SDS011;8371;52.272;9.746;2023-11-21T00:15:02;6.83;;;5.07;;
16516;SDS011;8371;52.272;9.746;2023-11-21T00:17:30;4.77;;;4.53;;
16516;SDS011;8371;52.272;9.746;2023-11-21T00:19:56;5.37;;;5.07;;
16516;SDS011;8371;52.272;9.746;2023-11-21T00:22:22;6.13;;;5.47;;
16516;SDS011;8371;52.272;9.746;2023-11-21T00:24:47;5.27;;;4.97;;
16516;SDS011;8371;52.272;9.746;2023-11-21T00:27:13;6.20;;;5.67;;
16516;SDS011;8371;52.272;9.746;2023-11-21T00:29:39;5.17;;;4.53;;
16516;SDS011;8371;52.272;9.746;2023-11-21T00:32:06;5.00;;;4.80;;
16516;SDS011;8371;52.272;9.746;2023-11-21T00:34:32;5.30;;;4.90;;
16516;SDS011;8371;52.272;9.746;2023-11-21T00:36:58;5.33;;;4.77;;
16516;SDS011;8371;52.272;9.746;2023-11-21T00:39:24;5.43;;;5.07;;
16516;SDS011;8371;52.272;9.746;2023-11-21T00:41:51;5.23;;;4.93;;
16516;SDS011;8371;52.272;9.746;2023-11-21T00:44:17;6.07;;;5.57;;
16516;SDS011;8371;52.272;9.746;2023-11-21T00:46:43;5.63;;;5.13;;
16516;SDS011;8371;52.272;9.746;2023-11-21T00:49:08;5.43;;;5.07;;
16516;SDS011;8371;52.272;9.746;2023-11-21T00:51:34;5.87;;;5.47;;
16516;SDS011;8371;52.272;9.746;2023-11-21T00:54:01;5.67;;;5.27;;
16516;SDS011;8371;52.272;9.746;2023-11-21T00:56:26;6.57;;;6.00;;
16516;SDS011;8371;52.272;9.746;2023-11-21T00:58:53;6.47;;;5.87;;
16516;SDS011;8371;52.272;9.746;2023-11-21T01:01:19;6.37;;;5.97;;
16516;SDS011;8371;52.272;9.746;2023-11-21T01:03:46;6.03;;;5.63;;
16516;SDS011;8371;52.272;9.746;2023-11-21T01:06:12;5.80;;;5.30;;
16516;SDS011;8371;52.272;9.746;2023-11-21T01:08:37;5.87;;;5.57;;
16516;SDS011;8371;52.272;9.746;2023-11-21T01:11:03;6.03;;;5.70;;
16516;SDS011;8371;52.272;9.746;2023-11-21T01:13:30;6.20;;;5.70;;
16516;SDS011;8371;52.272;9.746;2023-11-21T01:15:55;6.07;;;5.57;;
16516;SDS011;8371;52.272;9.746;2023-11-21T01:18:22;6.10;;;5.70;;
16516;SDS011;8371;52.272;9.746;2023-11-21T01:20:47;6.10;;;5.63;;
16516;SDS011;8371;52.272;9.746;2023-11-21T01:23:13;5.80;;;5.50;;
16516;SDS011;8371;52.272;9.746;2023-11-21T01:25:39;6.03;;;5.53;;
16516;SDS011;8371;52.272;9.746;2023-11-21T01:28:05;6.00;;;5.47;;
16516;SDS011;8371;52.272;9.746;2023-11-21T01:30:32;6.63;;;5.97;;
16516;SDS011;8371;52.272;9.746;2023-11-21T01:32:58;5.83;;;5.40;;
16516;SDS011;8371;52.272;9.746;2023-11-21T01:35:24;6.00;;;5.47;;
16516;SDS011;8371;52.272;9.746;2023-11-21T01:37:50;5.43;;;5.03;;
16516;SDS011;8371;52.272;9.746;2023-11-21T01:40:16;4.77;;;4.47;;
16516;SDS011;8371;52.272;9.746;2023-11-21T01:42:42;5.10;;;4.70;;
16516;SDS011;8371;52.272;9.746;2023-11-21T01:45:12;6.50;;;5.97;;
16516;SDS011;8371;52.272;9.746;2023-11-21T01:47:38;5.53;;;4.90;;
16516;SDS011;8371;52.272;9.746;2023-11-21T01:50:06;5.63;;;5.23;;
16516;SDS011;8371;52.272;9.746;2023-11-21T01:52:34;5.80;;;5.40;;
16516;SDS011;8371;52.272;9.746;2023-11-21T01:55:00;5.50;;;5.10;;
16516;SDS011;8371;52.272;9.746;2023-11-21T01:57:27;5.67;;;5.10;;
16516;SDS011;8371;52.272;9.746;2023-11-21T01:59:54;5.33;;;4.83;;
16516;SDS011;8371;52.272;9.746;2023-11-21T02:02:20;5.17;;;4.73;;
16516;SDS011;8371;52.272;9.746;2023-11-21T02:04:46;6.03;;;5.73;;
16516;SDS011;8371;52.272;9.746;2023-11-21T02:07:11;5.43;;;5.10;;
16516;SDS011;8371;52.272;9.746;2023-11-21T02:09:37;4.77;;;4.47;;
16516;SDS011;8371;52.272;9.746;2023-11-21T02:12:07;4.80;;;4.50;;
16516;SDS011;8371;52.272;9.746;2023-11-21T02:14:35;5.97;;;5.53;;
16516;SDS011;8371;52.272;9.746;2023-11-21T02:17:02;5.87;;;5.53;;
16516;SDS011;8371;52.272;9.746;2023-11-21T02:19:28;5.43;;;5.13;;
16516;SDS011;8371;52.272;9.746;2023-11-21T02:21:58;5.60;;;5.10;;
16516;SDS011;8371;52.272;9.746;2023-11-21T02:24:26;5.87;;;5.37;;
16516;SDS011;8371;52.272;9.746;2023-11-21T02:26:52;5.33;;;5.03;;
16516;SDS011;8371;52.272;9.746;2023-11-21T02:29:18;5.73;;;5.33;;
16516;SDS011;8371;52.272;9.746;2023-11-21T02:31:46;5.33;;;4.93;;
16516;SDS011;8371;52.272;9.746;2023-11-21T02:34:15;5.77;;;5.47;;
16516;SDS011;8371;52.272;9.746;2023-11-21T02:36:42;5.07;;;4.70;;
16516;SDS011;8371;52.272;9.746;2023-11-21T02:39:09;5.67;;;5.17;;
16516;SDS011;8371;52.272;9.746;2023-11-21T02:41:36;6.07;;;5.57;;
16516;SDS011;8371;52.272;9.746;2023-11-21T02:44:09;5.40;;;5.10;;
16516;SDS011;8371;52.272;9.746;2023-11-21T02:46:32;6.40;;;5.93;;
16516;SDS011;8371;52.272;9.746;2023-11-21T02:49:03;6.10;;;5.70;;
16516;SDS011;8371;52.272;9.746;2023-11-21T02:51:27;6.97;;;6.43;;
16516;SDS011;8371;52.272;9.746;2023-11-21T02:53:54;7.00;;;5.73;;
16516;SDS011;8371;52.272;9.746;2023-11-21T02:56:22;6.23;;;5.93;;
16516;SDS011;8371;52.272;9.746;2023-11-21T02:58:47;5.57;;;5.17;;
16516;SDS011;8371;52.272;9.746;2023-11-21T03:01:13;6.47;;;5.63;;
16516;SDS011;8371;52.272;9.746;2023-11-21T03:03:39;6.40;;;5.90;;
16516;SDS011;8371;52.272;9.746;2023-11-21T03:06:05;7.30;;;6.10;;
16516;SDS011;8371;52.272;9.746;2023-11-21T03:08:32;6.93;;;6.23;;
16516;SDS011;8371;52.272;9.746;2023-11-21T03:10:58;7.07;;;6.57;;
16516;SDS011;8371;52.272;9.746;2023-11-21T03:13:24;6.07;;;5.67;;
16516;SDS011;8371;52.272;9.746;2023-11-21T03:15:49;8.07;;;7.13;;
16516;SDS011;8371;52.272;9.746;2023-11-21T03:18:15;7.50;;;6.90;;
16516;SDS011;8371;52.272;9.746;2023-11-21T03:20:43;7.03;;;6.60;;
16516;SDS011;8371;52.272;9.746;2023-11-21T03:23:10;7.23;;;6.57;;
16516;SDS011;8371;52.272;9.746;2023-11-21T03:25:36;7.97;;;7.37;;
16516;SDS011;8371;52.272;9.746;2023-11-21T03:28:02;7.77;;;7.17;;
16516;SDS011;8371;52.272;9.746;2023-11-21T03:30:28;7.77;;;7.17;;
16516;SDS011;8371;52.272;9.746;2023-11-21T03:32:54;6.63;;;6.23;;
16516;SDS011;8371;52.272;9.746;2023-11-21T03:35:20;6.83;;;6.47;;
16516;SDS011;8371;52.272;9.746;2023-11-21T03:37:46;7.23;;;6.50;;
16516;SDS011;8371;52.272;9.746;2023-11-21T03:40:12;7.10;;;6.63;;
16516;SDS011;8371;52.272;9.746;2023-11-21T03:42:38;7.70;;;7.30;;
16516;SDS011;8371;52.272;9.746;2023-11-21T03:45:08;7.27;;;6.57;;
16516;SDS011;8371;52.272;9.746;2023-11-21T03:47:34;8.20;;;7.17;;
16516;SDS011;8371;52.272;9.746;2023-11-21T03:50:00;7.23;;;6.77;;
16516;SDS011;8371;52.272;9.746;2023-11-21T03:52:26;6.87;;;6.43;;
16516;SDS011;8371;52.272;9.746;2023-11-21T03:54:53;7.67;;;7.03;;
16516;SDS011;8371;52.272;9.746;2023-11-21T03:57:20;7.90;;;7.10;;
16516;SDS011;8371;52.272;9.746;2023-11-21T03:59:46;7.10;;;6.50;;
16516;SDS011;8371;52.272;9.746;2023-11-21T04:02:12;8.27;;;6.20;;
16516;SDS011;8371;52.272;9.746;2023-11-21T04:04:38;7.03;;;6.43;;
16516;SDS011;8371;52.272;9.746;2023-11-21T04:07:04;7.27;;;6.77;;
16516;SDS011;8371;52.272;9.746;2023-11-21T04:09:30;7.33;;;6.73;;
16516;SDS011;8371;52.272;9.746;2023-11-21T04:11:56;7.17;;;6.63;;
16516;SDS011;8371;52.272;9.746;2023-11-21T04:14:22;8.93;;;7.33;;
16516;SDS011;8371;52.272;9.746;2023-11-21T04:16:48;8.00;;;7.30;;
16516;SDS011;8371;52.272;9.746;2023-11-21T04:19:14;7.93;;;7.30;;
16516;SDS011;8371;52.272;9.746;2023-11-21T04:21:40;7.53;;;6.93;;
16516;SDS011;8371;52.272;9.746;2023-11-21T04:24:07;7.00;;;6.43;;
16516;SDS011;8371;52.272;9.746;2023-11-21T04:26:33;8.27;;;7.60;;
16516;SDS011;8371;52.272;9.746;2023-11-21T04:28:59;9.30;;;7.67;;
16516;SDS011;8371;52.272;9.746;2023-11-21T04:31:24;7.40;;;6.90;;
16516;SDS011;8371;52.272;9.746;2023-11-21T04:33:50;8.33;;;7.67;;
16516;SDS011;8371;52.272;9.746;2023-11-21T04:36:16;8.87;;;7.97;;
16516;SDS011;8371;52.272;9.746;2023-11-21T04:38:42;8.10;;;7.43;;
16516;SDS011;8371;52.272;9.746;2023-11-21T04:41:08;7.47;;;6.97;;
16516;SDS011;8371;52.272;9.746;2023-11-21T04:43:33;11.33;;;8.03;;
16516;SDS011;8371;52.272;9.746;2023-11-21T04:45:59;7.57;;;6.90;;
16516;SDS011;8371;52.272;9.746;2023-11-21T04:48:29;7.73;;;7.23;;
16516;SDS011;8371;52.272;9.746;2023-11-21T04:50:53;7.80;;;7.20;;
16516;SDS011;8371;52.272;9.746;2023-11-21T04:53:18;8.40;;;7.73;;
16516;SDS011;8371;52.272;9.746;2023-11-21T04:55:44;8.23;;;7.43;;
16516;SDS011;8371;52.272;9.746;2023-11-21T04:58:11;9.43;;;7.57;;
16516;SDS011;8371;52.272;9.746;2023-11-21T05:00:37;9.07;;;6.90;;
16516;SDS011;8371;52.272;9.746;2023-11-21T05:03:03;7.80;;;7.30;;
16516;SDS011;8371;52.272;9.746;2023-11-21T05:05:30;8.40;;;7.60;;
16516;SDS011;8371;52.272;9.746;2023-11-21T05:07:55;7.80;;;7.20;;
16516;SDS011;8371;52.272;9.746;2023-11-21T05:10:21;7.73;;;7.20;;
16516;SDS011;8371;52.272;9.746;2023-11-21T05:12:48;6.70;;;6.20;;
16516;SDS011;8371;52.272;9.746;2023-11-21T05:15:15;6.97;;;6.40;;
16516;SDS011;8371;52.272;9.746;2023-11-21T05:17:42;6.57;;;6.27;;
16516;SDS011;8371;52.272;9.746;2023-11-21T05:20:12;7.37;;;6.77;;
16516;SDS011;8371;52.272;9.746;2023-11-21T05:22:41;6.90;;;6.33;;
16516;SDS011;8371;52.272;9.746;2023-11-21T05:25:07;7.57;;;6.97;;
16516;SDS011;8371;52.272;9.746;2023-11-21T05:27:33;6.23;;;5.83;;
16516;SDS011;8371;52.272;9.746;2023-11-21T05:30:03;7.47;;;7.03;;
16516;SDS011;8371;52.272;9.746;2023-11-21T05:32:30;6.17;;;5.83;;
16516;SDS011;8371;52.272;9.746;2023-11-21T05:34:56;6.60;;;6.20;;
16516;SDS011;8371;52.272;9.746;2023-11-21T05:37:22;5.90;;;5.60;;
16516;SDS011;8371;52.272;9.746;2023-11-21T05:39:49;6.93;;;6.43;;
16516;SDS011;8371;52.272;9.746;2023-11-21T05:42:15;6.80;;;6.40;;
16516;SDS011;8371;52.272;9.746;2023-11-21T05:44:42;6.43;;;5.90;;
16516;SDS011;8371;52.272;9.746;2023-11-21T05:47:10;6.80;;;6.27;;
16516;SDS011;8371;52.272;9.746;2023-11-21T05:49:38;7.20;;;6.70;;
16516;SDS011;8371;52.272;9.746;2023-11-21T05:52:04;6.90;;;6.43;;
16516;SDS011;8371;52.272;9.746;2023-11-21T05:54:31;7.80;;;6.93;;
16516;SDS011;8371;52.272;9.746;2023-11-21T05:56:57;7.83;;;7.20;;
16516;SDS011;8371;52.272;9.746;2023-11-21T05:59:23;8.00;;;7.50;;
16516;SDS011;8371;52.272;9.746;2023-11-21T06:01:49;7.47;;;6.97;;
16516;SDS011;8371;52.272;9.746;2023-11-21T06:04:15;6.93;;;6.53;;
16516;SDS011;8371;52.272;9.746;2023-11-21T06:06:40;6.87;;;6.50;;
16516;SDS011;8371;52.272;9.746;2023-11-21T06:09:06;6.70;;;6.30;;
16516;SDS011;8371;52.272;9.746;2023-11-21T06:11:34;7.70;;;7.23;;
16516;SDS011;8371;52.272;9.746;2023-11-21T06:14:00;7.00;;;6.60;;
16516;SDS011;8371;52.272;9.746;2023-11-21T06:16:27;7.07;;;6.27;;
16516;SDS011;8371;52.272;9.746;2023-11-21T06:18:54;6.93;;;6.50;;
16516;SDS011;8371;52.272;9.746;2023-11-21T06:21:19;6.80;;;6.40;;
16516;SDS011;8371;52.272;9.746;2023-11-21T06:23:45;6.90;;;6.50;;
16516;SDS011;8371;52.272;9.746;2023-11-21T06:26:11;5.30;;;5.00;;
16516;SDS011;8371;52.272;9.746;2023-11-21T06:28:38;6.23;;;5.83;;
16516;SDS011;8371;52.272;9.746;2023-11-21T06:31:04;6.20;;;5.77;;
16516;SDS011;8371;52.272;9.746;2023-11-21T06:33:31;5.97;;;5.57;;
16516;SDS011;8371;52.272;9.746;2023-11-21T06:35:57;5.90;;;5.50;;
16516;SDS011;8371;52.272;9.746;2023-11-21T06:38:23;5.83;;;5.50;;
16516;SDS011;8371;52.272;9.746;2023-11-21T06:40:48;5.93;;;5.43;;
16516;SDS011;8371;52.272;9.746;2023-11-21T06:43:14;6.50;;;6.10;;
16516;SDS011;8371;52.272;9.746;2023-11-21T06:45:40;6.63;;;6.13;;
16516;SDS011;8371;52.272;9.746;2023-11-21T06:48:06;6.43;;;6.03;;
16516;SDS011;8371;52.272;9.746;2023-11-21T06:50:32;6.17;;;5.87;;
16516;SDS011;8371;52.272;9.746;2023-11-21T06:52:58;5.53;;;5.23;;
16516;SDS011;8371;52.272;9.746;2023-11-21T06:55:23;6.30;;;5.93;;
16516;SDS011;8371;52.272;9.746;2023-11-21T06:57:49;5.77;;;5.47;;
16516;SDS011;8371;52.272;9.746;2023-11-21T07:00:15;5.60;;;5.30;;
16516;SDS011;8371;52.272;9.746;2023-11-21T07:02:43;4.40;;;4.20;;
16516;SDS011;8371;52.272;9.746;2023-11-21T07:05:09;4.37;;;4.17;;
16516;SDS011;8371;52.272;9.746;2023-11-21T07:07:35;4.10;;;3.90;;
16516;SDS011;8371;52.272;9.746;2023-11-21T07:10:02;4.00;;;3.80;;
16516;SDS011;8371;52.272;9.746;2023-11-21T07:12:30;4.50;;;4.30;;
16516;SDS011;8371;52.272;9.746;2023-11-21T07:14:56;3.23;;;3.13;;
16516;SDS011;8371;52.272;9.746;2023-11-21T07:17:23;3.43;;;3.17;;
16516;SDS011;8371;52.272;9.746;2023-11-21T07:19:49;3.70;;;3.50;;
16516;SDS011;8371;52.272;9.746;2023-11-21T07:22:15;2.63;;;2.53;;
16516;SDS011;8371;52.272;9.746;2023-11-21T07:24:43;2.73;;;2.63;;
16516;SDS011;8371;52.272;9.746;2023-11-21T07:27:09;2.97;;;2.77;;
16516;SDS011;8371;52.272;9.746;2023-11-21T07:29:34;2.67;;;2.57;;
16516;SDS011;8371;52.272;9.746;2023-11-21T07:32:00;2.40;;;2.30;;
16516;SDS011;8371;52.272;9.746;2023-11-21T07:34:26;2.73;;;2.60;;
16516;SDS011;8371;52.272;9.746;2023-11-21T07:36:51;2.40;;;2.30;;
16516;SDS011;8371;52.272;9.746;2023-11-21T07:39:17;2.47;;;2.37;;
16516;SDS011;8371;52.272;9.746;2023-11-21T07:41:43;2.30;;;2.20;;
16516;SDS011;8371;52.272;9.746;2023-11-21T07:44:15;2.47;;;2.37;;
16516;SDS011;8371;52.272;9.746;2023-11-21T07:46:45;2.47;;;2.37;;
16516;SDS011;8371;52.272;9.746;2023-11-21T07:49:11;2.60;;;2.50;;
16516;SDS011;8371;52.272;9.746;2023-11-21T07:51:39;2.47;;;2.37;;
16516;SDS011;8371;52.272;9.746;2023-11-21T07:54:05;2.43;;;2.33;;
16516;SDS011;8371;52.272;9.746;2023-11-21T07:56:31;2.27;;;2.17;;
16516;SDS011;8371;52.272;9.746;2023-11-21T07:58:56;2.23;;;2.13;;
16516;SDS011;8371;52.272;9.746;2023-11-21T08:01:22;3.03;;;2.83;;
16516;SDS011;8371;52.272;9.746;2023-11-21T08:03:48;2.80;;;2.70;;
16516;SDS011;8371;52.272;9.746;2023-11-21T08:06:15;3.13;;;2.93;;
16516;SDS011;8371;52.272;9.746;2023-11-21T08:08:41;2.50;;;2.40;;
16516;SDS011;8371;52.272;9.746;2023-11-21T08:11:08;2.63;;;2.53;;
16516;SDS011;8371;52.272;9.746;2023-11-21T08:13:35;2.70;;;2.60;;
16516;SDS011;8371;52.272;9.746;2023-11-21T08:16:01;2.73;;;2.63;;
16516;SDS011;8371;52.272;9.746;2023-11-21T08:18:28;2.70;;;2.60;;
16516;SDS011;8371;52.272;9.746;2023-11-21T08:20:55;2.90;;;2.80;;
16516;SDS011;8371;52.272;9.746;2023-11-21T08:23:20;2.70;;;2.60;;
16516;SDS011;8371;52.272;9.746;2023-11-21T08:25:48;2.70;;;2.60;;
16516;SDS011;8371;52.272;9.746;2023-11-21T08:28:14;2.73;;;2.63;;
16516;SDS011;8371;52.272;9.746;2023-11-21T08:30:40;3.00;;;2.70;;
16516;SDS011;8371;52.272;9.746;2023-11-21T08:33:06;2.77;;;2.67;;
16516;SDS011;8371;52.272;9.746;2023-11-21T08:35:33;2.87;;;2.77;;
16516;SDS011;8371;52.272;9.746;2023-11-21T08:38:00;2.73;;;2.63;;
16516;SDS011;8371;52.272;9.746;2023-11-21T08:40:26;3.17;;;3.07;;
16516;SDS011;8371;52.272;9.746;2023-11-21T08:42:52;3.33;;;3.23;;
16516;SDS011;8371;52.272;9.746;2023-11-21T08:45:18;2.83;;;2.73;;
16516;SDS011;8371;52.272;9.746;2023-11-21T08:47:45;3.07;;;2.97;;
16516;SDS011;8371;52.272;9.746;2023-11-21T08:50:11;2.93;;;2.83;;
16516;SDS011;8371;52.272;9.746;2023-11-21T08:52:40;2.37;;;2.27;;
16516;SDS011;8371;52.272;9.746;2023-11-21T08:55:07;2.60;;;2.50;;
16516;SDS011;8371;52.272;9.746;2023-11-21T08:57:34;2.93;;;2.83;;
16516;SDS011;8371;52.272;9.746;2023-11-21T09:00:01;2.80;;;2.70;;
16516;SDS011;8371;52.272;9.746;2023-11-21T09:02:28;3.13;;;3.03;;
16516;SDS011;8371;52.272;9.746;2023-11-21T09:04:54;3.70;;;3.50;;
16516;SDS011;8371;52.272;9.746;2023-11-21T09:07:19;3.93;;;3.73;;
16516;SDS011;8371;52.272;9.746;2023-11-21T09:09:48;3.80;;;3.53;;
16516;SDS011;8371;52.272;9.746;2023-11-21T09:12:15;4.27;;;4.00;;
16516;SDS011;8371;52.272;9.746;2023-11-21T09:14:42;4.40;;;4.20;;
16516;SDS011;8371;52.272;9.746;2023-11-21T09:17:09;4.03;;;3.83;;
16516;SDS011;8371;52.272;9.746;2023-11-21T09:19:37;4.47;;;4.27;;
16516;SDS011;8371;52.272;9.746;2023-11-21T09:22:03;5.23;;;4.87;;
16516;SDS011;8371;52.272;9.746;2023-11-21T09:24:30;5.63;;;5.23;;
16516;SDS011;8371;52.272;9.746;2023-11-21T09:26:57;4.90;;;4.70;;
16516;SDS011;8371;52.272;9.746;2023-11-21T09:29:23;5.50;;;5.20;;
16516;SDS011;8371;52.272;9.746;2023-11-21T09:31:49;5.10;;;4.83;;
16516;SDS011;8371;52.272;9.746;2023-11-21T09:34:17;4.97;;;4.77;;
16516;SDS011;8371;52.272;9.746;2023-11-21T09:36:46;5.30;;;5.10;;
16516;SDS011;8371;52.272;9.746;2023-11-21T09:39:13;4.93;;;4.73;;
16516;SDS011;8371;52.272;9.746;2023-11-21T09:41:42;6.10;;;5.80;;
16516;SDS011;8371;52.272;9.746;2023-11-21T09:44:10;4.93;;;4.73;;
16516;SDS011;8371;52.272;9.746;2023-11-21T09:46:41;4.87;;;4.57;;
16516;SDS011;8371;52.272;9.746;2023-11-21T09:49:11;5.13;;;4.93;;
16516;SDS011;8371;52.272;9.746;2023-11-21T09:51:43;4.60;;;4.37;;
16516;SDS011;8371;52.272;9.746;2023-11-21T09:54:10;4.40;;;4.20;;
16516;SDS011;8371;52.272;9.746;2023-11-21T09:56:37;5.00;;;4.57;;
16516;SDS011;8371;52.272;9.746;2023-11-21T09:59:03;4.40;;;4.20;;
16516;SDS011;8371;52.272;9.746;2023-11-21T10:01:32;4.33;;;4.13;;
16516;SDS011;8371;52.272;9.746;2023-11-21T10:04:00;4.50;;;4.33;;
16516;SDS011;8371;52.272;9.746;2023-11-21T10:06:26;4.63;;;4.43;;
16516;SDS011;8371;52.272;9.746;2023-11-21T10:08:55;4.27;;;4.07;;
16516;SDS011;8371;52.272;9.746;2023-11-21T10:11:24;4.40;;;4.10;;
16516;SDS011;8371;52.272;9.746;2023-11-21T10:13:54;4.53;;;4.33;;
16516;SDS011;8371;52.272;9.746;2023-11-21T10:16:22;4.53;;;4.27;;
16516;SDS011;8371;52.272;9.746;2023-11-21T10:18:51;4.50;;;4.10;;
16516;SDS011;8371;52.272;9.746;2023-11-21T10:21:20;4.13;;;3.93;;
16516;SDS011;8371;52.272;9.746;2023-11-21T10:23:45;3.77;;;3.67;;
16516;SDS011;8371;52.272;9.746;2023-11-21T10:26:13;3.77;;;3.67;;
16516;SDS011;8371;52.272;9.746;2023-11-21T10:28:54;4.00;;;3.80;;
16516;SDS011;8371;52.272;9.746;2023-11-21T10:31:23;3.60;;;3.50;;
16516;SDS011;8371;52.272;9.746;2023-11-21T10:33:50;3.13;;;3.03;;
16516;SDS011;8371;52.272;9.746;2023-11-21T10:36:27;3.30;;;3.20;;
16516;SDS011;8371;52.272;9.746;2023-11-21T10:38:53;3.17;;;3.07;;
16516;SDS011;8371;52.272;9.746;2023-11-21T10:41:20;3.63;;;3.43;;
16516;SDS011;8371;52.272;9.746;2023-11-21T10:43:46;3.50;;;3.20;;
16516;SDS011;8371;52.272;9.746;2023-11-21T10:46:13;3.57;;;3.37;;
16516;SDS011;8371;52.272;9.746;2023-11-21T10:48:41;3.70;;;3.50;;
16516;SDS011;8371;52.272;9.746;2023-11-21T10:51:07;2.70;;;2.60;;
16516;SDS011;8371;52.272;9.746;2023-11-21T10:53:43;2.63;;;2.53;;
16516;SDS011;8371;52.272;9.746;2023-11-21T10:56:08;3.10;;;3.00;;
16516;SDS011;8371;52.272;9.746;2023-11-21T10:58:37;3.20;;;3.10;;
16516;SDS011;8371;52.272;9.746;2023-11-21T11:01:05;3.10;;;3.00;;
16516;SDS011;8371;52.272;9.746;2023-11-21T11:03:32;3.10;;;3.00;;
16516;SDS011;8371;52.272;9.746;2023-11-21T11:06:00;3.10;;;3.00;;
16516;SDS011;8371;52.272;9.746;2023-11-21T11:08:26;3.20;;;3.00;;
16516;SDS011;8371;52.272;9.746;2023-11-21T11:10:53;3.17;;;3.07;;
16516;SDS011;8371;52.272;9.746;2023-11-21T11:13:18;3.40;;;3.30;;
16516;SDS011;8371;52.272;9.746;2023-11-21T11:15:47;3.30;;;3.20;;
16516;SDS011;8371;52.272;9.746;2023-11-21T11:18:15;3.07;;;2.97;;
16516;SDS011;8371;52.272;9.746;2023-11-21T11:20:42;3.33;;;3.03;;
16516;SDS011;8371;52.272;9.746;2023-11-21T11:23:23;3.30;;;3.20;;
16516;SDS011;8371;52.272;9.746;2023-11-21T11:34:30;3.27;;;3.17;;
16516;SDS011;8371;52.272;9.746;2023-11-21T11:37:03;2.87;;;2.77;;
16516;SDS011;8371;52.272;9.746;2023-11-21T11:42:08;3.10;;;3.00;;
16516;SDS011;8371;52.272;9.746;2023-11-21T11:47:22;3.20;;;3.10;;
16516;SDS011;8371;52.272;9.746;2023-11-21T11:50:00;3.17;;;3.07;;
16516;SDS011;8371;52.272;9.746;2023-11-21T11:55:11;3.07;;;2.97;;
16516;SDS011;8371;52.272;9.746;2023-11-21T11:57:39;3.47;;;3.27;;
16516;SDS011;8371;52.272;9.746;2023-11-21T12:00:21;2.97;;;2.87;;
16516;SDS011;8371;52.272;9.746;2023-11-21T12:02:57;3.00;;;2.90;;
16516;SDS011;8371;52.272;9.746;2023-11-21T12:05:25;2.73;;;2.63;;
16516;SDS011;8371;52.272;9.746;2023-11-21T12:07:55;3.00;;;2.80;;
16516;SDS011;8371;52.272;9.746;2023-11-21T12:10:23;2.60;;;2.50;;
16516;SDS011;8371;52.272;9.746;2023-11-21T12:12:51;2.70;;;2.60;;
16516;SDS011;8371;52.272;9.746;2023-11-21T12:15:19;2.57;;;2.47;;
16516;SDS011;8371;52.272;9.746;2023-11-21T12:17:45;3.47;;;3.37;;
16516;SDS011;8371;52.272;9.746;2023-11-21T12:20:18;2.83;;;2.73;;
16516;SDS011;8371;52.272;9.746;2023-11-21T12:22:53;2.83;;;2.73;;
16516;SDS011;8371;52.272;9.746;2023-11-21T12:25:20;3.07;;;2.87;;
16516;SDS011;8371;52.272;9.746;2023-11-21T12:27:49;2.90;;;2.80;;
16516;SDS011;8371;52.272;9.746;2023-11-21T12:30:16;2.80;;;2.70;;
16516;SDS011;8371;52.272;9.746;2023-11-21T12:32:44;2.70;;;2.60;;
16516;SDS011;8371;52.272;9.746;2023-11-21T12:35:13;3.07;;;2.97;;
16516;SDS011;8371;52.272;9.746;2023-11-21T12:37:40;3.23;;;2.93;;
16516;SDS011;8371;52.272;9.746;2023-11-21T12:40:08;2.70;;;2.60;;
16516;SDS011;8371;52.272;9.746;2023-11-21T12:42:38;2.53;;;2.43;;
16516;SDS011;8371;52.272;9.746;2023-11-21T12:45:10;2.50;;;2.40;;
16516;SDS011;8371;52.272;9.746;2023-11-21T12:47:54;2.37;;;2.27;;
16516;SDS011;8371;52.272;9.746;2023-11-21T12:50:19;2.50;;;2.40;;
16516;SDS011;8371;52.272;9.746;2023-11-21T12:52:50;2.37;;;2.30;;
16516;SDS011;8371;52.272;9.746;2023-11-21T12:55:17;2.33;;;2.23;;
16516;SDS011;8371;52.272;9.746;2023-11-21T12:57:44;2.70;;;2.60;;
16516;SDS011;8371;52.272;9.746;2023-11-21T13:00:11;2.50;;;2.40;;
16516;SDS011;8371;52.272;9.746;2023-11-21T13:02:43;2.27;;;2.17;;
16516;SDS011;8371;52.272;9.746;2023-11-21T13:05:09;2.90;;;2.70;;
16516;SDS011;8371;52.272;9.746;2023-11-21T13:07:42;2.60;;;2.50;;
16516;SDS011;8371;52.272;9.746;2023-11-21T13:10:10;2.60;;;2.50;;
16516;SDS011;8371;52.272;9.746;2023-11-21T13:12:36;2.27;;;2.27;;
16516;SDS011;8371;52.272;9.746;2023-11-21T13:15:05;2.23;;;2.20;;
16516;SDS011;8371;52.272;9.746;2023-11-21T13:17:33;2.83;;;2.63;;
16516;SDS011;8371;52.272;9.746;2023-11-21T13:19:58;2.53;;;2.43;;
16516;SDS011;8371;52.272;9.746;2023-11-21T13:22:24;2.30;;;2.20;;
16516;SDS011;8371;52.272;9.746;2023-11-21T13:24:50;2.60;;;2.50;;
16516;SDS011;8371;52.272;9.746;2023-11-21T13:27:16;2.70;;;2.60;;
16516;SDS011;8371;52.272;9.746;2023-11-21T13:29:41;2.23;;;2.13;;
16516;SDS011;8371;52.272;9.746;2023-11-21T13:32:07;2.30;;;2.20;;
16516;SDS011;8371;52.272;9.746;2023-11-21T13:34:34;2.20;;;2.10;;
16516;SDS011;8371;52.272;9.746;2023-11-21T13:37:02;2.10;;;2.00;;
16516;SDS011;8371;52.272;9.746;2023-11-21T13:39:29;2.40;;;2.30;;
16516;SDS011;8371;52.272;9.746;2023-11-21T13:41:57;1.83;;;1.83;;
16516;SDS011;8371;52.272;9.746;2023-11-21T13:44:23;2.57;;;2.47;;
16516;SDS011;8371;52.272;9.746;2023-11-21T13:46:54;2.70;;;2.60;;
16516;SDS011;8371;52.272;9.746;2023-11-21T13:49:22;2.60;;;2.50;;
16516;SDS011;8371;52.272;9.746;2023-11-21T13:51:48;1.87;;;1.87;;
16516;SDS011;8371;52.272;9.746;2023-11-21T13:54:15;3.63;;;2.40;;
16516;SDS011;8371;52.272;9.746;2023-11-21T13:56:41;1.80;;;1.80;;
16516;SDS011;8371;52.272;9.746;2023-11-21T13:59:09;2.47;;;2.37;;
16516;SDS011;8371;52.272;9.746;2023-11-21T14:01:49;2.33;;;2.23;;
16516;SDS011;8371;52.272;9.746;2023-11-21T14:04:20;1.87;;;1.87;;
16516;SDS011;8371;52.272;9.746;2023-11-21T14:06:49;1.83;;;1.83;;
16516;SDS011;8371;52.272;9.746;2023-11-21T14:09:17;2.17;;;2.17;;
16516;SDS011;8371;52.272;9.746;2023-11-21T14:11:46;2.20;;;2.10;;
16516;SDS011;8371;52.272;9.746;2023-11-21T14:14:11;2.10;;;2.00;;
16516;SDS011;8371;52.272;9.746;2023-11-21T14:16:37;2.50;;;2.20;;
16516;SDS011;8371;52.272;9.746;2023-11-21T14:19:03;2.57;;;2.47;;
16516;SDS011;8371;52.272;9.746;2023-11-21T14:21:30;1.80;;;1.70;;
16516;SDS011;8371;52.272;9.746;2023-11-21T14:23:57;1.90;;;1.90;;
16516;SDS011;8371;52.272;9.746;2023-11-21T14:26:23;2.20;;;2.10;;
16516;SDS011;8371;52.272;9.746;2023-11-21T14:28:50;2.20;;;2.10;;
16516;SDS011;8371;52.272;9.746;2023-11-21T14:31:16;2.03;;;1.93;;
16516;SDS011;8371;52.272;9.746;2023-11-21T14:33:43;1.73;;;1.73;;
16516;SDS011;8371;52.272;9.746;2023-11-21T14:36:09;2.37;;;2.27;;
16516;SDS011;8371;52.272;9.746;2023-11-21T14:38:38;2.27;;;2.10;;
16516;SDS011;8371;52.272;9.746;2023-11-21T14:41:05;2.20;;;2.10;;
16516;SDS011;8371;52.272;9.746;2023-11-21T14:43:33;1.60;;;1.60;;
16516;SDS011;8371;52.272;9.746;2023-11-21T14:46:03;1.90;;;1.80;;
16516;SDS011;8371;52.272;9.746;2023-11-21T14:48:31;1.60;;;1.60;;
16516;SDS011;8371;52.272;9.746;2023-11-21T14:51:02;1.80;;;1.73;;
16516;SDS011;8371;52.272;9.746;2023-11-21T14:53:29;1.90;;;1.90;;
16516;SDS011;8371;52.272;9.746;2023-11-21T14:56:14;2.10;;;2.00;;
16516;SDS011;8371;52.272;9.746;2023-11-21T14:58:41;1.87;;;1.87;;
16516;SDS011;8371;52.272;9.746;2023-11-21T15:01:07;2.23;;;2.10;;
16516;SDS011;8371;52.272;9.746;2023-11-21T15:03:33;2.00;;;1.90;;
16516;SDS011;8371;52.272;9.746;2023-11-21T15:06:02;2.10;;;2.00;;
16516;SDS011;8371;52.272;9.746;2023-11-21T15:08:31;2.23;;;2.13;;
16516;SDS011;8371;52.272;9.746;2023-11-21T15:10:57;2.30;;;2.20;;
16516;SDS011;8371;52.272;9.746;2023-11-21T15:13:23;2.43;;;2.33;;
16516;SDS011;8371;52.272;9.746;2023-11-21T15:15:51;1.40;;;1.40;;